Terminal Aerodrome Forecast
Issued by NWS Cleveland, OH

Home | Current Version | Previous Version | Text Only | Print | Product List | Glossary On
Versions: 1 2 3 4 5 6 7 8 9 10 11 12 13 14 15 16 17 18 19 20 21 22 23
248
FTUS41 KCLE 190528
TAFYNG
TAF
KYNG 190528Z 1906/2006 15012KT P6SM BKN250
     FM191300 16010KT P6SM -RA SCT015 OVC025
     FM191500 18011KT 2SM -RA OVC005 WS020/22040KT
     FM192200 19010G18KT 6SM BR VCSH OVC008=

USA.gov is the U.S. government's official web portal to all federal, state and local government web resources and services.